Flight Track Log - Related Links

Times and Time Zones

All times are in EDT time to prevent confusion due to time zone crossing. See the SKW6377 flight status page for this flight to view local times or setup timezone preferences in your user account.

Time Position Orientation Groundspeed Altitude Reporting Facility
EDT Latitude Longitude Course Direction KTS MPH feet Rate Location/Type
Fri 01:19:52 PM 39.9167 -104.6833 346° North 176 203 7,000  Level Denver TRACON
Fri 01:20:52 PM 39.9833 -104.6667 11° North 246 283 8,900 1,579 Climbing Denver TRACON
Fri 01:21:46 PM 40.0500 -104.6667 360° North 272 313 10,000 892 Climbing Denver TRACON
Fri 01:22:00 PM 40.1659 -104.7714 347° North  Level FlightAware Approximate
Fri 01:22:06 PM 40.0725 -104.6625 North 264 304 10,000  Level Denver Center
Fri 01:23:00 PM 40.2720 -104.8032 347° North  Level FlightAware Approximate
Fri 01:23:08 PM 40.1486 -104.6828 348° North 277 319 10,900  Level Denver Center
Fri 01:24:00 PM 40.3777 -104.8370 346° North  Level FlightAware Approximate
Fri 01:24:11 PM 40.2378 -104.7056 349° North 300 345 13,700  Level Denver Center
Fri 01:25:00 PM 40.4665 -104.8666 346° North  Level FlightAware Approximate
Fri 01:25:13 PM 40.3208 -104.7281 348° North 310 357 15,600  Level Denver Center
Fri 01:26:15 PM 40.4125 -104.7511 349° North 311 358 17,600 1,694 Climbing Denver Center
Fri 01:27:17 PM 40.5003 -104.7753 348° North 321 369 19,100 1,452 Climbing Denver Center
Fri 01:28:19 PM 40.5894 -104.7983 349° North 326 375 20,600 1,279 Climbing Denver Center
Fri 01:29:33 PM 40.6875 -104.8256 348° North 338 389 22,000 1,191 Climbing Denver Center
Fri 01:30:35 PM 40.7933 -104.8528 349° North 328 377 23,300 1,161 Climbing Denver Center
Fri 01:31:37 PM 40.8850 -104.8992 339° North 345 397 24,400 1,113 Climbing Denver Center
Fri 01:32:39 PM 40.9936 -104.9506 340° North 354 407 25,600 774 Climbing Denver Center
Fri 01:33:41 PM 41.0828 -104.9950 339° North 360 414 26,000 194 Climbing Denver Center
Fri 01:34:43 PM 41.1903 -105.0475 340° North 368 423 26,000  Level Denver Center
Fri 01:35:45 PM 41.2669 -105.0856 340° North 369 425 26,000  Level Denver Center
Fri 01:36:47 PM 41.3756 -105.1403 339° North 372 428 26,000  Level Denver Center
Fri 01:37:49 PM 41.4831 -105.1958 339° North 372 428 26,000  Level Denver Center
Fri 01:38:51 PM 41.5769 -105.2425 340° North 375 432 26,000  Level Denver Center
Fri 01:39:53 PM 41.6803 -105.3128 333° Northwest 374 430 26,000  Level Denver Center
Fri 01:40:55 PM 41.7706 -105.3739 333° Northwest 378 435 26,000  Level Denver Center
Fri 01:41:57 PM 41.8750 -105.4422 334° Northwest 374 430 26,000  Level Denver Center
Fri 01:42:59 PM 41.9653 -105.5033 333° Northwest 377 434 26,000  Level Denver Center
Fri 01:44:01 PM 42.0703 -105.5731 334° Northwest 377 434 26,000  Level Denver Center
Fri 01:45:03 PM 42.1583 -105.6333 333° Northwest 373 429 26,000  Level Denver Center
Fri 01:46:05 PM 42.2322 -105.6836 333° Northwest 372 428 26,000 -912 Level Denver Center
Fri 01:47:08 PM 42.3519 -105.7647 333° Northwest 374 430 24,100 -2,304 Descending Denver Center
Fri 01:48:10 PM 42.4386 -105.8236 333° Northwest 364 419 21,200 -3,048 Descending Denver Center
Fri 01:49:00 PM 42.5089 -105.8718 333° Northwest  Level FlightAware Approximate
Fri 01:49:12 PM 42.5375 -105.8922 333° Northwest 358 412 17,800  Level Denver Center
Fri 01:50:14 PM 42.6139 -105.9703 323° Northwest 359 413 15,100 -2,758 Descending Denver Center
Fri 01:51:16 PM 42.6931 -106.0658 318° Northwest 350 403 12,100 -1,887 Descending Denver Center
Fri 01:52:18 PM 42.7514 -106.1361 319° Northwest 315 362 11,200 -1,016 Descending Denver Center
Fri 01:53:20 PM 42.8153 -106.2078 321° Northwest 279 321 10,000 -971 Descending Denver Center
Fri 01:54:34 PM 42.8644 -106.2600 322° Northwest 255 293 9,000 -811 Descending Denver Center

Login

Don't have an account? Register now (free) for customized features, flight alerts, and more!